Time;durP1;ratioP1;P1;durP2;ratioP2;P2;SDS_P1;SDS_P2;PMS_P1;PMS_P2;Temp;Humidity;BMP_temperature;BMP_pressure;BME280_temperature;BME280_humidity;BME280_pressure;Samples;Min_cycle;Max_cycle;Signal;HPM_P1;HPM_P2
2021/12/12 00:01:54;;;;;;;5.20;4.53;;;6.70;99.90;;;;;;6265394;22;20231;-90
2021/12/12 00:04:32;;;;;;;6.17;4.70;;;6.70;99.90;;;;;;6265497;22;20205;-90
2021/12/12 00:07:03;;;;;;;5.27;4.47;;;6.70;99.90;;;;;;6265094;22;20145;-90
2021/12/12 00:09:38;;;;;;;8.77;7.07;;;6.80;99.90;;;;;;6266195;22;20137;-90
2021/12/12 00:12:11;;;;;;;5.03;4.43;;;6.80;99.90;;;;;;6264714;22;20275;-92
2021/12/12 00:14:37;;;;;;;5.10;4.63;;;6.80;99.90;;;;;;6265106;22;20530;-90
2021/12/12 00:17:08;;;;;;;5.67;5.00;;;6.80;99.90;;;;;;6239470;22;21121;-90
2021/12/12 00:19:35;;;;;;;6.47;5.33;;;6.80;99.90;;;;;;6239654;22;20200;-90
2021/12/12 00:22:07;;;;;;;6.07;4.63;;;6.80;99.90;;;;;;6264958;22;20206;-90
2021/12/12 00:24:33;;;;;;;6.73;4.90;;;6.80;99.90;;;;;;6266185;22;20181;-90
2021/12/12 00:26:59;;;;;;;9.37;6.67;;;6.80;99.90;;;;;;6239875;22;20300;-90
2021/12/12 00:29:27;;;;;;;8.13;5.70;;;6.80;99.90;;;;;;6265563;22;20247;-90
2021/12/12 00:31:58;;;;;;;8.50;5.63;;;6.80;99.90;;;;;;6239729;22;20189;-91
2021/12/12 00:34:25;;;;;;;11.13;5.93;;;6.80;99.90;;;;;;6264548;22;20204;-90
2021/12/12 00:36:51;;;;;;;5.83;4.93;;;6.80;99.90;;;;;;6214039;22;20200;-91
2021/12/12 00:39:22;;;;;;;6.53;4.60;;;6.80;99.90;;;;;;6240401;22;20181;-91
2021/12/12 00:41:56;;;;;;;5.73;3.93;;;6.80;99.90;;;;;;6264309;22;20288;-91
2021/12/12 00:44:24;;;;;;;13.10;5.03;;;6.90;99.90;;;;;;6239075;23;20205;-90
2021/12/12 00:46:52;;;;;;;8.60;5.57;;;6.80;99.90;;;;;;6264336;22;20189;-91
2021/12/12 00:49:18;;;;;;;7.90;4.77;;;6.80;99.90;;;;;;6214901;23;20709;-90
2021/12/12 00:51:45;;;;;;;7.93;6.03;;;6.80;99.90;;;;;;6239745;22;20530;-90
2021/12/12 00:54:13;;;;;;;11.97;5.07;;;6.70;99.90;;;;;;6265568;22;20189;-90
2021/12/12 00:56:40;;;;;;;8.73;4.40;;;6.70;99.90;;;;;;6264735;22;20565;-90
2021/12/12 00:59:06;;;;;;;11.20;3.80;;;6.80;99.90;;;;;;6214517;22;20629;-90
2021/12/12 01:01:54;;;;;;;10.73;5.27;;;6.70;99.90;;;;;;6213866;23;20320;-90
2021/12/12 01:04:42;;;;;;;6.23;5.60;;;6.70;99.90;;;;;;6238274;23;20666;-90
2021/12/12 01:07:12;;;;;;;5.23;3.63;;;6.70;99.90;;;;;;6239446;22;20564;-90
2021/12/12 01:09:45;;;;;;;5.03;4.77;;;6.70;99.90;;;;;;6265398;22;20181;-90
2021/12/12 01:12:16;;;;;;;11.50;6.20;;;6.70;99.90;;;;;;6265060;22;20174;-90
2021/12/12 01:14:51;;;;;;;6.43;4.50;;;6.70;99.90;;;;;;6264917;22;20197;-89
2021/12/12 01:17:34;;;;;;;6.23;4.83;;;6.70;99.90;;;;;;6264587;22;20272;-91
2021/12/12 01:20:14;;;;;;;9.70;7.40;;;6.70;99.90;;;;;;6264860;22;20189;-90
2021/12/12 01:22:41;;;;;;;4.57;4.17;;;6.70;99.90;;;;;;6264452;22;20193;-91
2021/12/12 01:25:18;;;;;;;7.23;5.50;;;6.70;99.90;;;;;;6264442;22;20211;-90
2021/12/12 01:27:44;;;;;;;4.93;4.03;;;6.70;99.90;;;;;;6264874;22;20597;-91
2021/12/12 01:30:12;;;;;;;9.07;5.40;;;6.70;99.90;;;;;;6265121;22;20231;-91
2021/12/12 01:32:38;;;;;;;4.33;3.80;;;6.70;99.90;;;;;;6239469;22;20356;-90
2021/12/12 01:35:15;;;;;;;9.67;3.93;;;6.70;99.90;;;;;;6264567;22;20710;-91
2021/12/12 01:37:50;;;;;;;7.37;3.93;;;6.70;99.90;;;;;;6241608;22;20192;-90
2021/12/12 01:40:26;;;;;;;4.73;4.20;;;6.80;99.90;;;;;;6239768;23;20700;-90
2021/12/12 01:42:58;;;;;;;13.87;6.43;;;6.80;99.90;;;;;;6264352;22;20697;-91
2021/12/12 01:45:42;;;;;;;5.17;4.00;;;6.80;99.90;;;;;;6239752;22;20181;-89
2021/12/12 01:48:19;;;;;;;5.03;4.53;;;6.80;99.90;;;;;;6265029;22;20494;-90
2021/12/12 01:50:55;;;;;;;6.70;4.47;;;6.80;99.90;;;;;;6264640;22;20192;-89
2021/12/12 01:53:26;;;;;;;4.07;3.87;;;6.80;99.90;;;;;;6264343;22;20197;-89
2021/12/12 01:55:58;;;;;;;10.10;5.43;;;6.80;99.90;;;;;;6240616;22;20233;-90
2021/12/12 01:58:28;;;;;;;4.77;3.20;;;6.80;99.90;;;;;;6238857;23;20197;-89
2021/12/12 02:01:04;;;;;;;7.13;5.00;;;6.80;99.90;;;;;;6264285;22;20200;-89
2021/12/12 02:03:35;;;;;;;5.67;5.17;;;6.80;99.90;;;;;;6241361;22;20555;-90
2021/12/12 02:06:07;;;;;;;7.90;5.17;;;6.80;99.90;;;;;;6264516;22;20276;-90
2021/12/12 02:08:33;;;;;;;9.33;5.30;;;6.80;99.90;;;;;;6264335;22;20216;-89
2021/12/12 02:11:05;;;;;;;3.73;3.40;;;6.80;99.90;;;;;;6238763;23;20193;-90
2021/12/12 02:13:36;;;;;;;9.27;4.37;;;6.80;99.90;;;;;;6265294;22;20196;-89
2021/12/12 02:16:03;;;;;;;4.83;4.40;;;6.80;99.90;;;;;;6241891;22;20149;-90
2021/12/12 02:18:35;;;;;;;5.27;4.13;;;6.80;99.90;;;;;;6241927;22;20165;-89
2021/12/12 02:21:23;;;;;;;7.27;4.33;;;6.80;99.90;;;;;;6241410;22;20193;-89
2021/12/12 02:35:37;;;;;;;3.63;3.33;;;6.90;99.90;;;;;;6241825;22;20280;-90
2021/12/12 02:38:05;;;;;;;3.67;3.33;;;6.90;99.90;;;;;;6265867;22;20296;-90
2021/12/12 02:40:56;;;;;;;7.10;4.33;;;6.90;99.90;;;;;;6266214;22;20193;-90
2021/12/12 02:43:25;;;;;;;3.90;3.43;;;7.00;99.90;;;;;;6239983;23;20205;-90
2021/12/12 02:45:55;;;;;;;9.30;4.57;;;7.00;99.90;;;;;;6240936;22;20257;-90
2021/12/12 02:48:27;;;;;;;3.20;2.93;;;7.10;99.90;;;;;;6241749;22;20149;-90
2021/12/12 02:50:55;;;;;;;3.97;3.63;;;7.00;99.90;;;;;;6266133;22;20197;-90
2021/12/12 02:53:53;;;;;;;5.70;4.07;;;7.10;99.90;;;;;;6240556;22;20248;-89
2021/12/12 02:56:24;;;;;;;5.03;3.23;;;7.20;99.90;;;;;;6217443;23;20201;-90
2021/12/12 02:58:51;;;;;;;4.73;4.33;;;7.20;99.90;;;;;;6265852;22;20292;-90
2021/12/12 03:01:21;;;;;;;4.30;3.00;;;7.30;99.90;;;;;;6240806;22;20696;-89
2021/12/12 03:03:50;;;;;;;4.80;3.47;;;7.30;99.90;;;;;;6240255;22;20185;-90
2021/12/12 03:06:20;;;;;;;23.20;4.07;;;7.20;99.90;;;;;;6265850;22;20149;-89
2021/12/12 03:08:49;;;;;;;9.53;3.80;;;7.20;99.90;;;;;;6265756;22;20192;-89
2021/12/12 03:11:15;;;;;;;4.17;3.63;;;7.30;99.90;;;;;;6265468;22;20192;-89
2021/12/12 03:13:42;;;;;;;5.70;4.17;;;7.30;99.90;;;;;;6215016;22;20287;-90
2021/12/12 03:16:08;;;;;;;4.60;4.20;;;7.20;99.90;;;;;;6240117;23;20197;-90
2021/12/12 03:18:40;;;;;;;6.87;4.13;;;7.30;99.90;;;;;;6215982;23;20498;-89
2021/12/12 03:21:15;;;;;;;8.30;4.50;;;7.30;99.90;;;;;;6265716;22;20201;-89
2021/12/12 03:23:47;;;;;;;10.80;3.37;;;7.30;99.90;;;;;;6265375;22;20197;-89
2021/12/12 03:26:14;;;;;;;6.83;4.07;;;7.30;99.90;;;;;;6241494;22;20638;-89
2021/12/12 03:28:43;;;;;;;6.50;3.00;;;7.40;99.90;;;;;;6265789;22;20193;-89
2021/12/12 03:31:14;;;;;;;2.30;2.10;;;7.40;99.90;;;;;;6265323;22;20205;-91
2021/12/12 03:33:40;;;;;;;4.33;3.97;;;7.50;99.90;;;;;;6266200;22;20145;-89
2021/12/12 03:36:09;;;;;;;3.70;3.03;;;7.40;99.90;;;;;;6264868;22;20554;-89
2021/12/12 03:38:38;;;;;;;4.23;3.83;;;7.50;99.90;;;;;;6264662;22;20220;-90
2021/12/12 03:41:08;;;;;;;2.90;2.67;;;7.50;99.90;;;;;;6265098;22;20197;-89
2021/12/12 03:43:36;;;;;;;3.00;2.80;;;7.60;99.90;;;;;;6239188;23;20201;-91
2021/12/12 03:46:05;;;;;;;4.90;4.13;;;7.50;99.90;;;;;;6214397;22;20165;-89
2021/12/12 03:48:32;;;;;;;9.20;4.37;;;7.50;99.90;;;;;;6240507;22;20165;-90
2021/12/12 03:51:02;;;;;;;5.67;4.67;;;7.60;99.90;;;;;;6239362;22;20200;-90
2021/12/12 03:53:29;;;;;;;3.63;2.57;;;7.50;99.90;;;;;;6265061;22;20197;-88
2021/12/12 03:55:57;;;;;;;3.53;3.23;;;7.60;99.90;;;;;;6239234;23;20271;-89
2021/12/12 03:58:24;;;;;;;6.43;3.03;;;7.50;99.90;;;;;;6213872;23;20194;-89
2021/12/12 04:01:01;;;;;;;2.47;2.27;;;7.50;99.90;;;;;;6239479;22;20158;-89
2021/12/12 04:03:28;;;;;;;2.83;2.40;;;7.50;99.90;;;;;;6265223;22;20137;-89
2021/12/12 04:05:58;;;;;;;5.63;3.50;;;7.60;99.90;;;;;;6239197;22;20642;-89
2021/12/12 04:08:35;;;;;;;5.03;2.83;;;7.60;99.90;;;;;;6240121;22;20200;-90
2021/12/12 04:11:04;;;;;;;1.97;1.87;;;7.60;99.90;;;;;;6264507;22;20192;-90
2021/12/12 04:13:29;;;;;;;4.07;3.30;;;7.60;99.90;;;;;;6264913;22;20634;-90
2021/12/12 04:15:56;;;;;;;4.60;3.93;;;7.60;99.90;;;;;;6239370;22;20157;-89
2021/12/12 04:18:25;;;;;;;4.83;3.37;;;7.60;99.90;;;;;;6239834;22;20162;-90
2021/12/12 04:20:51;;;;;;;7.90;3.73;;;7.60;99.90;;;;;;6239072;23;20221;-89
2021/12/12 04:23:21;;;;;;;5.40;3.57;;;7.60;99.90;;;;;;6213944;23;20193;-91
2021/12/12 04:25:47;;;;;;;7.17;3.37;;;7.60;99.90;;;;;;6240397;22;20209;-89
2021/12/12 04:28:13;;;;;;;3.87;3.43;;;7.60;99.90;;;;;;6238974;22;20197;-89
2021/12/12 04:30:39;;;;;;;4.57;3.20;;;7.60;99.90;;;;;;6265242;22;20165;-89
2021/12/12 04:33:06;;;;;;;7.50;4.40;;;7.60;99.90;;;;;;6264120;22;20216;-89
2021/12/12 04:35:31;;;;;;;3.57;2.33;;;7.60;99.90;;;;;;6264350;22;20236;-89
2021/12/12 04:37:59;;;;;;;3.90;3.03;;;7.60;99.90;;;;;;6264699;22;20201;-90
2021/12/12 04:40:28;;;;;;;4.40;3.80;;;7.60;99.90;;;;;;6239407;22;20197;-89
2021/12/12 04:42:56;;;;;;;4.83;3.20;;;7.60;99.90;;;;;;6264394;22;20212;-89
2021/12/12 04:45:31;;;;;;;6.37;2.63;;;7.60;99.90;;;;;;6239611;23;20203;-89
2021/12/12 04:51:04;;;;;;;5.27;2.97;;;7.60;99.90;;;;;;6240318;22;20201;-90
2021/12/12 04:53:34;;;;;;;4.67;3.30;;;7.60;99.90;;;;;;6239073;23;20533;-89
2021/12/12 04:56:29;;;;;;;3.67;3.30;;;7.60;99.90;;;;;;6264521;22;20201;-90
2021/12/12 04:59:08;;;;;;;3.47;3.03;;;7.60;99.90;;;;;;6264847;22;20216;-89
2021/12/12 05:01:39;;;;;;;6.37;3.97;;;7.60;99.90;;;;;;6264563;22;20200;-89
2021/12/12 05:04:29;;;;;;;3.40;3.10;;;7.60;99.90;;;;;;6263828;22;20215;-90
2021/12/12 05:07:09;;;;;;;2.97;2.43;;;7.70;99.90;;;;;;6264313;22;20196;-89
2021/12/12 05:09:50;;;;;;;3.53;3.13;;;7.60;99.90;;;;;;6264900;22;20628;-90
2021/12/12 05:12:27;;;;;;;2.73;2.53;;;7.60;99.90;;;;;;6264671;22;20173;-89
2021/12/12 05:15:00;;;;;;;3.70;2.87;;;7.70;99.90;;;;;;6240285;22;20200;-89
2021/12/12 05:17:35;;;;;;;4.63;3.63;;;7.70;99.90;;;;;;6239530;22;20259;-90
2021/12/12 05:20:06;;;;;;;2.80;1.20;;;7.60;99.90;;;;;;6264645;22;20201;-90
2021/12/12 05:22:49;;;;;;;4.97;4.57;;;7.70;99.90;;;;;;6263758;22;20221;-90
2021/12/12 05:25:25;;;;;;;4.20;3.70;;;7.60;99.90;;;;;;6263966;22;20205;-89
2021/12/12 05:27:53;;;;;;;6.63;3.40;;;7.70;99.90;;;;;;6264196;22;20161;-89
2021/12/12 05:30:25;;;;;;;4.33;3.07;;;7.70;99.90;;;;;;6264830;22;20575;-90
2021/12/12 05:32:53;;;;;;;4.20;3.77;;;7.60;99.90;;;;;;6263991;22;20208;-90
2021/12/12 05:35:22;;;;;;;2.80;2.00;;;7.70;99.90;;;;;;6263804;22;20283;-90
2021/12/12 05:37:50;;;;;;;0.93;0.93;;;7.60;99.90;;;;;;6264548;22;20270;-90
2021/12/12 05:40:18;;;;;;;3.10;2.90;;;7.70;99.90;;;;;;6263845;22;20200;-90
2021/12/12 05:42:45;;;;;;;2.90;2.70;;;7.60;99.90;;;;;;6238587;22;20197;-90
2021/12/12 05:45:11;;;;;;;3.80;3.50;;;7.70;99.90;;;;;;6264692;22;20184;-90
2021/12/12 05:47:38;;;;;;;4.00;3.67;;;7.70;99.90;;;;;;6214437;23;20197;-90
2021/12/12 05:50:07;;;;;;;2.00;1.87;;;7.70;99.90;;;;;;6216108;22;20189;-90
2021/12/12 05:52:34;;;;;;;4.83;3.57;;;7.70;99.90;;;;;;6266266;22;20212;-89
2021/12/12 05:55:01;;;;;;;6.07;3.30;;;7.70;99.90;;;;;;6215145;22;20161;-90
2021/12/12 05:57:28;;;;;;;3.53;3.23;;;7.70;99.90;;;;;;6241760;22;20591;-89
2021/12/12 05:59:57;;;;;;;5.47;3.90;;;7.70;99.90;;;;;;6241095;22;20772;-90
2021/12/12 06:02:24;;;;;;;3.90;3.47;;;7.80;99.90;;;;;;6265776;22;20235;-90
2021/12/12 06:04:50;;;;;;;5.40;4.97;;;7.70;99.90;;;;;;6215565;23;20201;-90
2021/12/12 06:07:19;;;;;;;5.90;3.23;;;7.80;99.90;;;;;;6240375;22;20197;-90
2021/12/12 06:09:47;;;;;;;4.07;2.83;;;7.80;99.90;;;;;;6265818;22;20684;-90
2021/12/12 06:12:14;;;;;;;3.37;2.67;;;7.70;99.90;;;;;;6266933;22;20153;-91
2021/12/12 06:14:41;;;;;;;3.67;3.17;;;7.80;99.90;;;;;;6240210;23;20216;-89
2021/12/12 06:17:10;;;;;;;6.37;4.70;;;7.90;99.90;;;;;;6265783;22;20306;-90
2021/12/12 06:19:37;;;;;;;3.67;3.13;;;7.80;99.90;;;;;;6265991;22;20220;-89
2021/12/12 06:22:04;;;;;;;3.43;2.50;;;7.80;99.90;;;;;;6240783;22;20227;-90
2021/12/12 06:24:31;;;;;;;6.43;4.47;;;7.90;99.90;;;;;;6240860;23;20181;-89
2021/12/12 06:27:07;;;;;;;3.50;3.17;;;7.90;99.90;;;;;;6240215;22;20692;-89
2021/12/12 06:29:33;;;;;;;5.73;4.53;;;7.90;99.90;;;;;;6240143;23;20193;-89
2021/12/12 06:32:00;;;;;;;4.07;3.37;;;7.90;99.90;;;;;;6265889;22;20799;-89
2021/12/12 06:34:26;;;;;;;8.80;2.83;;;7.90;99.90;;;;;;6265741;22;20979;-90
2021/12/12 06:36:52;;;;;;;6.23;3.70;;;7.90;99.90;;;;;;6240171;22;20248;-90
2021/12/12 06:39:19;;;;;;;4.90;3.53;;;8.00;99.90;;;;;;6216016;23;20157;-90
2021/12/12 06:41:47;;;;;;;3.87;3.43;;;7.90;99.90;;;;;;6265151;22;20209;-90
2021/12/12 06:44:14;;;;;;;6.50;4.77;;;8.00;99.90;;;;;;6240416;23;20212;-90
2021/12/12 06:46:42;;;;;;;4.47;4.03;;;8.00;99.90;;;;;;6240686;22;20197;-90
2021/12/12 06:49:11;;;;;;;7.13;3.53;;;8.00;99.90;;;;;;6265498;22;20197;-89
2021/12/12 06:51:40;;;;;;;4.57;3.50;;;8.00;99.90;;;;;;6266367;22;20149;-90
2021/12/12 06:54:07;;;;;;;3.93;2.67;;;8.10;99.90;;;;;;6265343;22;20243;-89
2021/12/12 06:56:34;;;;;;;2.80;2.43;;;8.10;99.90;;;;;;6240160;22;20584;-90
2021/12/12 06:59:03;;;;;;;7.93;3.30;;;8.10;99.90;;;;;;6264982;22;20247;-90
2021/12/12 07:01:32;;;;;;;8.73;3.73;;;8.10;99.90;;;;;;6265480;22;20193;-90
2021/12/12 07:03:58;;;;;;;5.60;4.77;;;8.20;99.90;;;;;;6239725;22;20185;-90
2021/12/12 07:06:28;;;;;;;5.73;3.80;;;8.20;99.90;;;;;;6241202;22;20154;-89
2021/12/12 07:08:58;;;;;;;4.23;3.80;;;8.20;99.90;;;;;;6265228;22;20195;-89
2021/12/12 07:11:27;;;;;;;6.17;4.30;;;8.30;99.90;;;;;;6265474;22;20189;-89
2021/12/12 07:13:52;;;;;;;6.53;5.97;;;8.20;99.90;;;;;;6265608;22;20561;-89
2021/12/12 07:16:20;;;;;;;9.00;4.13;;;8.30;99.90;;;;;;6264750;22;20189;-90
2021/12/12 07:18:46;;;;;;;4.83;3.67;;;8.30;99.90;;;;;;6265613;22;20244;-90
2021/12/12 07:21:15;;;;;;;4.67;4.27;;;8.40;99.90;;;;;;6240783;22;20169;-89
2021/12/12 07:23:43;;;;;;;6.87;3.27;;;8.50;99.90;;;;;;6265151;22;20208;-89
2021/12/12 07:26:11;;;;;;;18.13;4.50;;;8.50;99.90;;;;;;6240125;22;20201;-89
2021/12/12 07:28:38;;;;;;;4.30;3.57;;;8.60;99.90;;;;;;6241443;22;20526;-90
2021/12/12 07:31:13;;;;;;;2.03;1.87;;;8.60;99.90;;;;;;6240526;22;20189;-89
2021/12/12 07:33:40;;;;;;;3.73;3.43;;;8.70;99.90;;;;;;6265941;22;20224;-90
2021/12/12 07:36:09;;;;;;;4.43;3.70;;;8.80;99.90;;;;;;6214420;23;20204;-90
2021/12/12 07:38:36;;;;;;;3.97;3.63;;;8.80;99.90;;;;;;6264535;22;20647;-90
2021/12/12 07:41:05;;;;;;;5.43;4.10;;;8.80;99.90;;;;;;6265083;22;20201;-91
2021/12/12 07:43:32;;;;;;;5.97;4.10;;;8.90;99.90;;;;;;6264455;22;20740;-89
2021/12/12 07:45:59;;;;;;;2.53;2.37;;;8.90;99.90;;;;;;6240320;22;20176;-90
2021/12/12 07:48:25;;;;;;;8.03;4.10;;;8.90;99.90;;;;;;6267318;22;20165;-91
2021/12/12 07:50:53;;;;;;;3.97;3.63;;;9.00;99.90;;;;;;6215065;23;20894;-91
2021/12/12 07:53:22;;;;;;;7.97;5.03;;;9.10;99.90;;;;;;6240399;22;20270;-92
2021/12/12 07:55:48;;;;;;;8.13;5.20;;;9.10;99.90;;;;;;6218169;23;20211;-90
2021/12/12 07:58:17;;;;;;;9.23;5.07;;;9.20;99.90;;;;;;6269939;22;20193;-91
2021/12/12 08:00:45;;;;;;;4.73;4.13;;;9.20;99.90;;;;;;6269099;22;20165;-92
2021/12/12 08:03:13;;;;;;;6.23;3.97;;;9.20;99.90;;;;;;6245332;22;20219;-90
2021/12/12 08:05:40;;;;;;;6.90;4.30;;;9.30;99.90;;;;;;6244277;22;20201;-92
2021/12/12 08:08:10;;;;;;;7.80;4.93;;;9.40;99.90;;;;;;6269204;22;20203;-90
2021/12/12 08:10:40;;;;;;;7.30;4.83;;;9.30;99.90;;;;;;6266678;22;20193;-91
2021/12/12 08:13:09;;;;;;;3.53;3.03;;;9.40;99.90;;;;;;6243818;22;20272;-91
2021/12/12 08:15:35;;;;;;;4.50;4.03;;;9.40;99.90;;;;;;6241213;22;20228;-90
2021/12/12 08:18:03;;;;;;;7.03;3.80;;;9.40;99.90;;;;;;6241215;22;20697;-91
2021/12/12 08:20:30;;;;;;;5.40;4.83;;;9.50;99.90;;;;;;6242202;22;20221;-91
2021/12/12 08:22:57;;;;;;;5.77;4.57;;;9.50;99.90;;;;;;6254076;22;20204;-91
2021/12/12 08:25:25;;;;;;;4.93;4.47;;;9.50;99.90;;;;;;6241338;22;20204;-91
2021/12/12 08:27:52;;;;;;;6.30;5.20;;;9.50;99.90;;;;;;6265136;22;20228;-91
2021/12/12 08:30:19;;;;;;;6.50;5.90;;;9.60;99.90;;;;;;6267144;22;20157;-91
2021/12/12 08:32:48;;;;;;;8.93;5.93;;;9.60;99.90;;;;;;6240647;23;20297;-90
2021/12/12 08:35:16;;;;;;;9.57;4.73;;;9.60;99.90;;;;;;6266780;22;20201;-91
2021/12/12 08:37:43;;;;;;;8.83;6.20;;;9.60;99.90;;;;;;6266506;22;20221;-91
2021/12/12 08:40:14;;;;;;;9.37;5.63;;;9.70;99.90;;;;;;6240739;22;20923;-91
2021/12/12 08:42:40;;;;;;;7.37;5.73;;;9.70;99.90;;;;;;6267448;22;20197;-92
2021/12/12 08:45:10;;;;;;;10.50;6.20;;;9.70;99.90;;;;;;6241585;22;20207;-91
2021/12/12 08:47:37;;;;;;;9.77;3.83;;;9.80;99.90;;;;;;6268832;22;20197;-90
2021/12/12 08:50:10;;;;;;;14.17;6.00;;;9.80;99.90;;;;;;6265908;22;20627;-91
2021/12/12 08:52:39;;;;;;;12.80;4.53;;;9.80;99.90;;;;;;6267288;22;20193;-91
2021/12/12 08:55:14;;;;;;;8.00;4.67;;;9.80;99.90;;;;;;6219651;22;20191;-90
2021/12/12 08:58:02;;;;;;;4.80;3.90;;;9.90;99.90;;;;;;6271056;22;20195;-91
2021/12/12 09:00:32;;;;;;;7.77;4.53;;;9.90;99.90;;;;;;6271532;22;20183;-91
2021/12/12 09:02:59;;;;;;;8.93;4.57;;;9.90;99.90;;;;;;6270842;22;20195;-91
2021/12/12 09:05:33;;;;;;;8.10;5.13;;;10.00;99.90;;;;;;6270995;22;20209;-92
2021/12/12 09:08:11;;;;;;;5.40;3.43;;;10.00;99.90;;;;;;6271566;22;20268;-92
2021/12/12 09:10:47;;;;;;;5.70;4.17;;;10.00;99.90;;;;;;6271303;22;20538;-91
2021/12/12 09:13:22;;;;;;;5.27;3.67;;;10.10;99.90;;;;;;6269568;22;20241;-91
2021/12/12 09:16:31;;;;;;;6.57;4.80;;;10.10;99.90;;;;;;6270276;22;20144;-92
2021/12/12 09:19:07;;;;;;;4.97;4.53;;;10.10;99.90;;;;;;6218808;22;20196;-92
2021/12/12 09:21:49;;;;;;;4.13;3.40;;;10.20;99.90;;;;;;6270832;22;20137;-91
2021/12/12 09:24:24;;;;;;;3.60;3.30;;;10.30;99.90;;;;;;6244885;23;20189;-92
2021/12/12 09:26:53;;;;;;;4.37;3.23;;;10.30;99.90;;;;;;6239231;23;20665;-91
2021/12/12 09:29:28;;;;;;;7.17;4.77;;;10.40;99.90;;;;;;6263645;22;20197;-91
2021/12/12 09:32:01;;;;;;;5.63;4.57;;;10.40;99.90;;;;;;6263989;22;20185;-91
2021/12/12 09:34:53;;;;;;;6.13;5.23;;;10.50;99.90;;;;;;6264398;22;20220;-92
2021/12/12 09:37:47;;;;;;;4.33;3.60;;;10.50;99.90;;;;;;6263885;22;20262;-91
2021/12/12 09:40:25;;;;;;;9.40;5.20;;;10.50;99.90;;;;;;6263902;22;20668;-91
2021/12/12 09:42:53;;;;;;;6.97;3.57;;;10.60;99.90;;;;;;6238927;23;20207;-90
2021/12/12 09:45:37;;;;;;;7.50;5.17;;;10.60;99.90;;;;;;6237038;22;20184;-90
2021/12/12 09:51:14;;;;;;;4.60;2.80;;;10.70;99.90;;;;;;6239377;22;20243;-90
2021/12/12 09:53:52;;;;;;;4.43;3.73;;;10.80;99.90;;;;;;6263835;22;20638;-89
2021/12/12 09:56:24;;;;;;;3.23;2.93;;;10.80;99.90;;;;;;6237562;23;20201;-90
2021/12/12 09:59:08;;;;;;;8.87;5.30;;;10.90;99.90;;;;;;6237944;23;20645;-90
2021/12/12 10:01:53;;;;;;;4.67;3.10;;;10.90;99.90;;;;;;6263590;22;20192;-90
2021/12/12 10:04:24;;;;;;;6.83;3.40;;;10.90;99.90;;;;;;6263470;22;20718;-90
2021/12/12 10:07:22;;;;;;;3.77;2.40;;;11.00;99.90;;;;;;6239784;22;20199;-90
2021/12/12 10:10:03;;;;;;;4.80;3.10;;;11.10;99.90;;;;;;6182643;23;20186;-90
2021/12/12 10:12:34;;;;;;;4.27;2.50;;;11.10;99.90;;;;;;6263429;22;20142;-90
2021/12/12 10:15:16;;;;;;;6.57;3.13;;;11.10;99.90;;;;;;6264888;22;20157;-91
2021/12/12 10:17:56;;;;;;;3.37;2.33;;;11.20;99.90;;;;;;6263577;22;20207;-90
2021/12/12 10:20:37;;;;;;;2.90;2.67;;;11.20;99.90;;;;;;6263437;22;20233;-90
2021/12/12 10:23:32;;;;;;;3.47;2.23;;;11.20;99.90;;;;;;6263260;22;20204;-90
2021/12/12 10:26:22;;;;;;;3.40;2.60;;;11.30;99.90;;;;;;6219057;22;20204;-90
2021/12/12 10:29:12;;;;;;;2.67;1.80;;;11.30;99.90;;;;;;6237562;23;20571;-90
2021/12/12 10:31:57;;;;;;;3.33;1.87;;;11.40;99.90;;;;;;6263288;22;20198;-89
2021/12/12 10:34:32;;;;;;;2.23;1.67;;;11.50;99.90;;;;;;6263604;22;20296;-89
2021/12/12 10:37:04;;;;;;;2.30;1.93;;;11.50;99.90;;;;;;6265620;22;20196;-91
2021/12/12 10:39:37;;;;;;;2.80;1.70;;;11.50;99.90;;;;;;6264991;22;20170;-91
2021/12/12 10:42:09;;;;;;;3.03;1.90;;;11.60;99.90;;;;;;6265837;22;20630;-91
2021/12/12 10:44:48;;;;;;;2.10;1.60;;;11.60;99.90;;;;;;6239236;23;20209;-91
2021/12/12 10:47:31;;;;;;;2.70;2.03;;;11.70;99.90;;;;;;6265092;22;20276;-90
2021/12/12 10:50:18;;;;;;;8.13;1.83;;;11.70;99.90;;;;;;6265027;22;20222;-91
2021/12/12 10:52:51;;;;;;;3.90;2.17;;;11.80;99.90;;;;;;6265003;22;20220;-89
2021/12/12 10:55:22;;;;;;;3.73;1.97;;;11.80;99.90;;;;;;6265075;22;20197;-91
2021/12/12 10:58:14;;;;;;;1.63;0.93;;;11.80;99.90;;;;;;6265632;22;20189;-90
2021/12/12 11:00:44;;;;;;;3.20;1.77;;;11.80;99.90;;;;;;6240272;22;20193;-90
2021/12/12 11:03:22;;;;;;;2.63;1.97;;;11.80;99.90;;;;;;6268554;22;20530;-90
2021/12/12 11:06:04;;;;;;;3.87;1.63;;;11.90;99.90;;;;;;6245966;22;20193;-91
2021/12/12 11:08:50;;;;;;;2.50;1.40;;;11.90;99.90;;;;;;6265536;22;20658;-90
2021/12/12 11:11:20;;;;;;;0.93;0.80;;;11.90;99.90;;;;;;6240014;23;20199;-92
2021/12/12 11:13:50;;;;;;;3.23;1.90;;;11.90;99.90;;;;;;6265732;22;20227;-90
2021/12/12 11:16:25;;;;;;;1.90;1.03;;;11.90;99.90;;;;;;6240027;23;20193;-90
2021/12/12 11:19:13;;;;;;;2.60;1.37;;;12.00;99.90;;;;;;6265046;22;20189;-89
2021/12/12 11:22:00;;;;;;;3.47;1.03;;;12.10;99.90;;;;;;6265159;22;20190;-90
2021/12/12 11:24:39;;;;;;;1.83;1.37;;;12.10;99.90;;;;;;6265377;22;20181;-90
2021/12/12 11:27:21;;;;;;;1.27;1.03;;;12.10;99.90;;;;;;6266029;22;20452;-91
2021/12/12 11:30:04;;;;;;;1.17;1.07;;;12.10;99.90;;;;;;6239970;23;20549;-90
2021/12/12 11:32:35;;;;;;;1.37;1.17;;;12.10;99.90;;;;;;6265228;22;20219;-90
2021/12/12 11:35:06;;;;;;;2.10;1.40;;;12.20;99.90;;;;;;6265052;22;20193;-90
2021/12/12 11:37:50;;;;;;;2.53;1.30;;;12.10;99.90;;;;;;6264665;22;20205;-90
2021/12/12 11:40:36;;;;;;;2.13;1.93;;;12.10;99.90;;;;;;6239987;23;20201;-90
2021/12/12 11:43:55;;;;;;;1.27;1.20;;;12.10;99.90;;;;;;6265180;22;20217;-90
2021/12/12 11:46:34;;;;;;;3.83;2.10;;;12.10;99.90;;;;;;6180922;23;20709;-90
2021/12/12 11:49:11;;;;;;;2.13;1.80;;;12.00;99.90;;;;;;6268903;22;20692;-90
2021/12/12 11:51:48;;;;;;;4.77;1.53;;;12.00;99.90;;;;;;6269100;22;20201;-90
2021/12/12 11:54:26;;;;;;;3.90;1.77;;;12.10;99.90;;;;;;6270633;22;20138;-91
2021/12/12 11:57:00;;;;;;;2.27;1.20;;;12.10;99.90;;;;;;6244913;23;20189;-91
2021/12/12 11:59:43;;;;;;;2.57;2.00;;;12.10;99.90;;;;;;6270309;22;20197;-91
2021/12/12 12:02:32;;;;;;;2.27;1.87;;;12.10;99.90;;;;;;6267734;22;20662;-91
2021/12/12 12:05:23;;;;;;;2.40;1.53;;;12.10;99.90;;;;;;6266026;22;20661;-92
2021/12/12 12:08:33;;;;;;;1.60;1.50;;;12.10;99.90;;;;;;6240984;23;20560;-91
2021/12/12 12:11:20;;;;;;;4.53;2.23;;;12.00;99.90;;;;;;6120860;23;20196;-92
2021/12/12 12:14:08;;;;;;;2.27;1.73;;;12.10;99.90;;;;;;6234698;23;20721;-91
2021/12/12 12:17:02;;;;;;;5.63;1.50;;;12.10;99.90;;;;;;6267582;22;20528;-91
2021/12/12 12:20:02;;;;;;;2.13;1.90;;;12.10;99.90;;;;;;6264805;22;20733;-90
2021/12/12 12:22:58;;;;;;;3.73;2.23;;;12.20;99.90;;;;;;6239403;23;20192;-89
2021/12/12 12:26:50;;;;;;;2.80;2.03;;;12.20;99.90;;;;;;6265704;22;20272;-93
2021/12/12 12:28:53;;;;;;;1.50;1.40;;;12.20;99.90;;;;;;6241873;22;20196;-92
2021/12/12 12:31:58;;;;;;;2.70;1.83;;;12.20;99.90;;;;;;6266641;22;20197;-91
2021/12/12 12:35:01;;;;;;;3.17;2.03;;;12.30;99.90;;;;;;6194227;23;20247;-91
2021/12/12 12:37:48;;;;;;;4.80;1.57;;;12.30;99.90;;;;;;6240258;23;20668;-91
2021/12/12 12:41:05;;;;;;;1.90;1.27;;;12.30;99.90;;;;;;6240359;23;20268;-91
2021/12/12 12:44:08;;;;;;;4.40;1.93;;;12.30;99.90;;;;;;6188295;23;20213;-91
2021/12/12 12:47:12;;;;;;;2.47;1.53;;;12.40;99.90;;;;;;6239351;23;20239;-91
2021/12/12 12:50:31;;;;;;;1.93;1.07;;;12.30;99.90;;;;;;6240360;23;20212;-91
2021/12/12 12:53:22;;;;;;;1.20;1.13;;;12.40;99.90;;;;;;6118906;23;20204;-90
2021/12/12 12:56:21;;;;;;;2.77;1.70;;;12.30;99.90;;;;;;6118128;23;20200;-89
2021/12/12 12:59:01;;;;;;;4.37;1.47;;;12.30;99.90;;;;;;6234556;23;20201;-90
2021/12/12 13:01:32;;;;;;;2.47;1.27;;;12.30;99.90;;;;;;6238894;23;20197;-90
2021/12/12 13:04:23;;;;;;;2.40;2.07;;;12.30;99.90;;;;;;6239764;22;20220;-92
2021/12/12 13:07:14;;;;;;;1.90;1.57;;;12.30;99.90;;;;;;6264149;22;20197;-90
2021/12/12 13:09:52;;;;;;;1.67;1.53;;;12.30;99.90;;;;;;6264344;22;20189;-90
2021/12/12 13:12:24;;;;;;;2.90;1.33;;;12.30;99.90;;;;;;6263842;22;20256;-90
2021/12/12 13:14:53;;;;;;;3.27;1.80;;;12.30;99.90;;;;;;6240993;22;20569;-90
2021/12/12 13:17:30;;;;;;;2.90;1.87;;;12.30;99.90;;;;;;6238145;23;20201;-90
2021/12/12 13:19:56;;;;;;;2.37;1.73;;;12.30;99.90;;;;;;6238594;23;20278;-91
2021/12/12 13:22:27;;;;;;;1.43;1.33;;;12.20;99.90;;;;;;6238849;23;20209;-89
2021/12/12 13:24:53;;;;;;;2.60;2.03;;;12.20;99.90;;;;;;6264913;22;20205;-90
2021/12/12 13:28:09;;;;;;;3.23;1.97;;;12.20;99.90;;;;;;6239453;22;20162;-89
2021/12/12 13:30:58;;;;;;;1.30;1.20;;;12.20;99.90;;;;;;6238635;22;20145;-91
2021/12/12 13:33:49;;;;;;;2.53;2.33;;;12.10;99.90;;;;;;6264563;22;20145;-90
2021/12/12 13:37:01;;;;;;;4.00;2.00;;;12.10;99.90;;;;;;6264699;22;20158;-91
2021/12/12 13:40:01;;;;;;;2.87;2.63;;;12.10;99.90;;;;;;6238835;23;20271;-93
2021/12/12 13:42:41;;;;;;;2.47;1.47;;;12.10;99.90;;;;;;6238961;22;20212;-90
2021/12/12 13:45:23;;;;;;;2.23;2.00;;;12.00;99.90;;;;;;6239730;23;20181;-91
2021/12/12 13:48:20;;;;;;;3.90;2.40;;;12.00;99.90;;;;;;6239060;23;20174;-91
2021/12/12 13:50:46;;;;;;;4.57;1.80;;;12.00;99.90;;;;;;6238735;23;20192;-91